Weather at La Fortuna Airport

Public forecast

Using degrees Celsius for public forecast. Weather courtesy of forecast.io.

Closest aviation weather report (METAR) to La Fortuna Airport

Report is more than 6 hours old.

Closest report is Los Colonizadores Airport, 44.5 nm (82.4 km) SSW.

2024/05/25 11:06 (retrieved 2 days ago)

SKSA 251106Z 27005KT 9999 -RA OVC093 23/23 Q1013

Closest aviation forecast (TAF) to La Fortuna Airport

Forecast is more than 6 hours old.

Closest forecast is San Antonio Del Tachira Airport, 59.9 nm (111.0 km) WNW.

2024/05/26 12:03 (retrieved 12 hours ago)

TAF TAF SVSA 261000Z 2612/2712 05007KT 9999 BKN020 TX30/2618Z TN16/2708Z TEMPO 2614/2618 15005KT 8000 RA OVC020